This is the latest recevied weather packets stored in our database for station/object KN6WGU. If no packets are shown the sender has not sent any weather packets the latest 10 day(s).
| Time | Temp. | Humidity | Pressure | Rain* | Wind** | Luminosity | Snow |
|---|---|---|---|---|---|---|---|
| 1777422066 | 15° C | 76% | 1006 hPa | 0 mm | - | 3 W/m² | - |
| 1777421761 | 15° C | 75% | 1006.2 hPa | 0 mm | - | 4 W/m² | - |
| 1777421457 | 15.56° C | 74% | 1006 hPa | 0 mm | - | 6 W/m² | - |
| 1777421153 | 15.56° C | 74% | 1006 hPa | 0 mm | - | 8 W/m² | - |
| 1777420850 | 15.56° C | 74% | 1005.9 hPa | 0 mm | - | 10 W/m² | - |
| 1777420546 | 15.56° C | 74% | 1006.3 hPa | 0 mm | - | 14 W/m² | - |
| 1777420242 | 15.56° C | 75% | 1006.3 hPa | 0 mm | - | 16 W/m² | - |
| 1777419937 | 16.11° C | 74% | 1006.3 hPa | 0 mm | - | 20 W/m² | - |
| 1777419635 | 16.11° C | 73% | 1006.4 hPa | 0 mm | - | 14 W/m² | - |
| 1777419333 | 16.11° C | 72% | 1006.6 hPa | 0 mm | - | 17 W/m² | - |
| 1777419032 | 16.67° C | 72% | 1006.3 hPa | 0 mm | - | 30 W/m² | - |
| 1777418731 | 16.67° C | 71% | 1006.4 hPa | 0 mm | - | 36 W/m² | - |
| 1777418428 | 16.67° C | 70% | 1006.4 hPa | 0 mm | - | 51 W/m² | - |
| 1777418124 | 16.67° C | 71% | 1006.2 hPa | 0 mm | - | 37 W/m² | - |
| 1777417821 | 16.67° C | 71% | 1006.3 hPa | 0 mm | - | 57 W/m² | - |
| 1777417516 | 16.67° C | 72% | 1006.4 hPa | 0 mm | - | 43 W/m² | - |
| 1777417213 | 17.22° C | 70% | 1006.3 hPa | 0 mm | - | 53 W/m² | - |
| 1777416909 | 17.78° C | 70% | 1006.1 hPa | 0 mm | - | 61 W/m² | - |
| 1777416609 | 17.22° C | 71% | 1006.2 hPa | 0 mm | - | 79 W/m² | - |
| 1777416305 | 17.22° C | 72% | 1006.1 hPa | 0 mm | - | 82 W/m² | - |
| 1777416004 | 17.78° C | 70% | 1005.9 hPa | 0 mm | - | 57 W/m² | - |
| 1777415700 | 17.78° C | 69% | 1005.6 hPa | 0 mm | - | 90 W/m² | - |
| 1777415396 | 17.78° C | 69% | 1005.7 hPa | 0 mm | - | 74 W/m² | - |
| 1777415090 | 17.78° C | 68% | 1005.6 hPa | 0 mm | - | 101 W/m² | - |
| 1777414790 | 17.78° C | 68% | 1005.7 hPa | 0 mm | - | 84 W/m² | - |
* Rain latest hour (hover to see other rain measurements)
** Current wind speed in m/s (hover to see current wind gust speed)